Time;durP1;ratioP1;P1;durP2;ratioP2;P2;SDS_P1;SDS_P2;PMS_P1;PMS_P2;Temp;Humidity;BMP_temperature;BMP_pressure;BME280_temperature;BME280_humidity;BME280_pressure;Samples;Min_cycle;Max_cycle;Signal;HPM_P1;HPM_P2
2021/01/29 00:01:12;;;;;;;27.73;13.30;;;;;;;;;;5089479;28;20448;-53
2021/01/29 00:03:38;;;;;;;22.50;12.20;;;;;;;;;;5089282;28;20408;-54
2021/01/29 00:06:04;;;;;;;19.65;11.25;;;;;;;;;;5090581;28;20388;-53
2021/01/29 00:08:33;;;;;;;25.55;13.80;;;;;;;;;;5089686;28;20158;-53
2021/01/29 00:10:59;;;;;;;20.42;12.65;;;;;;;;;;5090109;28;20169;-54
2021/01/29 00:13:25;;;;;;;28.38;13.52;;;;;;;;;;5093590;28;20181;-54
2021/01/29 00:15:52;;;;;;;23.10;13.25;;;;;;;;;;5091759;28;20205;-54
2021/01/29 00:18:18;;;;;;;18.55;11.80;;;;;;;;;;5089816;28;20170;-53
2021/01/29 00:20:44;;;;;;;23.48;12.45;;;;;;;;;;5093064;28;20220;-54
2021/01/29 00:23:10;;;;;;;24.90;13.90;;;;;;;;;;5103575;28;20177;-53
2021/01/29 00:25:38;;;;;;;21.67;12.40;;;;;;;;;;5108838;28;20459;-53
2021/01/29 00:28:05;;;;;;;20.10;11.65;;;;;;;;;;5093927;28;20211;-53
2021/01/29 00:30:31;;;;;;;25.75;13.18;;;;;;;;;;5094126;28;20646;-53
2021/01/29 00:32:57;;;;;;;24.40;11.32;;;;;;;;;;5092938;28;20197;-53
2021/01/29 00:35:24;;;;;;;23.10;11.13;;;;;;;;;;5092929;28;20258;-54
2021/01/29 00:37:50;;;;;;;23.00;11.77;;;;;;;;;;5093317;28;20174;-53
2021/01/29 00:40:17;;;;;;;27.35;13.32;;;;;;;;;;5093448;28;20233;-54
2021/01/29 00:42:43;;;;;;;29.98;13.95;;;;;;;;;;5092409;28;20185;-54
2021/01/29 00:45:10;;;;;;;30.10;12.63;;;;;;;;;;5091868;28;20422;-53
2021/01/29 00:47:36;;;;;;;23.42;12.30;;;;;;;;;;5104678;28;20193;-53
2021/01/29 00:50:07;;;;;;;23.45;11.70;;;;;;;;;;5111231;28;20355;-54
2021/01/29 00:52:33;;;;;;;26.83;12.35;;;;;;;;;;5111020;28;20799;-53
2021/01/29 00:54:59;;;;;;;26.55;11.80;;;;;;;;;;5111569;28;20167;-54
2021/01/29 00:57:25;;;;;;;25.50;11.40;;;;;;;;;;5111793;28;20166;-53
2021/01/29 00:59:50;;;;;;;24.07;12.80;;;;;;;;;;5111059;28;20458;-54
2021/01/29 01:02:16;;;;;;;34.17;13.67;;;;;;;;;;5112283;28;20824;-54
2021/01/29 01:04:43;;;;;;;39.10;14.23;;;;;;;;;;5111599;28;20576;-54
2021/01/29 01:07:10;;;;;;;44.95;15.35;;;;;;;;;;5111206;28;20166;-54
2021/01/29 01:09:36;;;;;;;39.90;14.93;;;;;;;;;;5111958;28;20197;-54
2021/01/29 01:12:02;;;;;;;45.13;15.27;;;;;;;;;;5111484;28;20163;-54
2021/01/29 01:14:28;;;;;;;33.97;14.60;;;;;;;;;;5102077;28;20202;-53
2021/01/29 01:16:54;;;;;;;33.20;15.10;;;;;;;;;;5089418;28;20443;-53
2021/01/29 01:19:20;;;;;;;43.60;16.77;;;;;;;;;;5089056;28;20429;-54
2021/01/29 01:21:46;;;;;;;44.07;16.17;;;;;;;;;;5090734;28;20478;-54
2021/01/29 01:24:12;;;;;;;37.97;16.10;;;;;;;;;;5110505;28;20423;-53
2021/01/29 01:26:38;;;;;;;46.70;16.03;;;;;;;;;;5111494;28;20439;-53
2021/01/29 01:29:04;;;;;;;48.20;18.92;;;;;;;;;;5095660;28;20428;-54
2021/01/29 01:31:31;;;;;;;43.83;17.55;;;;;;;;;;5092150;28;20508;-54
2021/01/29 01:33:57;;;;;;;52.47;16.33;;;;;;;;;;5092733;28;20168;-54
2021/01/29 01:36:22;;;;;;;37.83;16.40;;;;;;;;;;5092305;28;20179;-54
2021/01/29 01:38:48;;;;;;;38.83;15.63;;;;;;;;;;5092496;28;20420;-54
2021/01/29 01:41:15;;;;;;;42.57;16.27;;;;;;;;;;5092315;28;20453;-54
2021/01/29 01:43:41;;;;;;;41.78;15.95;;;;;;;;;;5092441;28;20397;-54
2021/01/29 01:46:07;;;;;;;55.20;20.30;;;;;;;;;;5073650;28;20171;-54
2021/01/29 01:48:36;;;;;;;53.50;17.90;;;;;;;;;;5072023;28;20917;-54
2021/01/29 01:51:02;;;;;;;46.80;16.40;;;;;;;;;;5072683;28;20796;-54
2021/01/29 01:53:40;;;;;;;38.83;16.77;;;;;;;;;;5072070;28;20742;-54
2021/01/29 01:56:15;;;;;;;47.57;16.53;;;;;;;;;;5071750;28;20391;-54
2021/01/29 01:58:44;;;;;;;64.77;18.03;;;;;;;;;;5071668;28;20424;-54
2021/01/29 02:01:10;;;;;;;59.92;18.80;;;;;;;;;;5071445;28;20457;-54
2021/01/29 02:03:36;;;;;;;56.58;19.13;;;;;;;;;;5071378;28;20170;-54
2021/01/29 02:06:03;;;;;;;52.03;19.50;;;;;;;;;;5071300;28;20163;-54
2021/01/29 02:08:31;;;;;;;46.93;17.10;;;;;;;;;;5071257;28;20459;-54
2021/01/29 02:10:57;;;;;;;48.72;18.88;;;;;;;;;;5071751;28;20414;-54
2021/01/29 02:13:23;;;;;;;49.47;18.23;;;;;;;;;;5072160;28;20677;-54
2021/01/29 02:15:52;;;;;;;39.07;19.23;;;;;;;;;;5091663;28;20405;-54
2021/01/29 02:18:41;;;;;;;45.70;17.27;;;;;;;;;;5091522;28;20544;-54
2021/01/29 02:21:10;;;;;;;51.10;18.20;;;;;;;;;;5091448;28;20941;-54
2021/01/29 02:23:51;;;;;;;50.67;18.95;;;;;;;;;;5091740;28;20409;-54
2021/01/29 02:26:17;;;;;;;55.23;19.53;;;;;;;;;;5091387;28;20424;-54
2021/01/29 02:29:02;;;;;;;65.40;19.43;;;;;;;;;;5091380;28;20426;-54
2021/01/29 02:31:38;;;;;;;54.30;18.20;;;;;;;;;;5091452;28;20437;-54
2021/01/29 02:34:07;;;;;;;44.03;20.47;;;;;;;;;;5091611;28;20410;-54
2021/01/29 02:36:36;;;;;;;47.10;18.80;;;;;;;;;;5091458;28;20570;-54
2021/01/29 02:39:02;;;;;;;54.97;19.50;;;;;;;;;;5091106;28;20427;-54
2021/01/29 02:41:37;;;;;;;52.70;17.53;;;;;;;;;;5091426;28;20452;-54
2021/01/29 02:44:11;;;;;;;47.30;18.73;;;;;;;;;;5084932;28;20486;-54
2021/01/29 02:46:54;;;;;;;49.70;17.47;;;;;;;;;;5079707;28;20456;-54
2021/01/29 02:49:39;;;;;;;44.50;18.13;;;;;;;;;;5091193;28;20428;-54
2021/01/29 02:52:25;;;;;;;48.13;19.07;;;;;;;;;;5091162;28;20954;-54
2021/01/29 02:54:53;;;;;;;47.00;18.50;;;;;;;;;;5091060;28;20421;-54
2021/01/29 02:57:28;;;;;;;45.67;18.77;;;;;;;;;;5090838;28;20888;-54
2021/01/29 03:00:07;;;;;;;40.30;19.00;;;;;;;;;;5090968;28;20574;-54
2021/01/29 03:02:36;;;;;;;42.77;15.97;;;;;;;;;;5090971;28;20402;-54
2021/01/29 03:05:08;;;;;;;34.37;16.67;;;;;;;;;;5090860;28;20402;-54
2021/01/29 03:07:48;;;;;;;31.45;14.23;;;;;;;;;;5090706;28;20405;-54
2021/01/29 03:10:17;;;;;;;33.30;13.50;;;;;;;;;;5090825;28;20240;-54
2021/01/29 03:12:53;;;;;;;30.60;12.87;;;;;;;;;;5090882;28;20408;-54
2021/01/29 03:15:25;;;;;;;26.73;13.50;;;;;;;;;;5090188;28;20455;-54
2021/01/29 03:17:54;;;;;;;32.20;14.90;;;;;;;;;;5090710;28;20428;-54
2021/01/29 03:20:44;;;;;;;24.80;11.03;;;;;;;;;;5090742;28;20821;-54
2021/01/29 03:23:12;;;;;;;25.13;11.70;;;;;;;;;;5080149;28;20408;-54
2021/01/29 03:25:44;;;;;;;30.57;12.40;;;;;;;;;;5090447;28;20439;-55
2021/01/29 03:28:12;;;;;;;31.53;14.93;;;;;;;;;;5090532;28;20541;-55
2021/01/29 03:30:41;;;;;;;26.70;14.27;;;;;;;;;;5090656;28;20424;-54
2021/01/29 03:33:08;;;;;;;26.60;13.70;;;;;;;;;;5091029;28;20410;-55
2021/01/29 03:35:38;;;;;;;27.07;13.83;;;;;;;;;;5090492;28;20491;-55
2021/01/29 03:38:20;;;;;;;33.73;12.70;;;;;;;;;;5090402;28;20565;-55
2021/01/29 03:40:50;;;;;;;24.00;12.17;;;;;;;;;;5090600;28;20452;-54
2021/01/29 03:43:41;;;;;;;25.50;11.07;;;;;;;;;;5089937;28;20404;-55
2021/01/29 03:46:10;;;;;;;20.67;10.23;;;;;;;;;;5039637;28;20918;-55
2021/01/29 03:48:44;;;;;;;25.20;11.63;;;;;;;;;;5070397;28;20420;-55
2021/01/29 03:51:35;;;;;;;20.10;11.83;;;;;;;;;;5070859;28;20814;-54
2021/01/29 03:54:04;;;;;;;21.97;10.07;;;;;;;;;;5070411;28;20479;-54
2021/01/29 03:56:55;;;;;;;14.93;8.23;;;;;;;;;;5073690;28;20496;-54
2021/01/29 03:59:21;;;;;;;15.40;7.60;;;;;;;;;;5074491;28;20453;-55
2021/01/29 04:01:47;;;;;;;16.73;8.20;;;;;;;;;;5074074;28;20452;-55
2021/01/29 04:04:16;;;;;;;11.63;6.23;;;;;;;;;;5074022;28;20454;-54
2021/01/29 04:06:55;;;;;;;14.90;7.53;;;;;;;;;;5073864;28;20484;-54
2021/01/29 04:09:29;;;;;;;15.43;6.77;;;;;;;;;;5073701;28;20428;-55
2021/01/29 04:11:58;;;;;;;12.60;6.87;;;;;;;;;;5074022;28;20418;-54
2021/01/29 04:14:31;;;;;;;10.13;5.90;;;;;;;;;;5091039;28;20471;-55
2021/01/29 04:16:58;;;;;;;14.50;6.10;;;;;;;;;;5093919;28;20405;-55
2021/01/29 04:19:26;;;;;;;12.10;5.20;;;;;;;;;;5093897;28;20414;-54
2021/01/29 04:22:03;;;;;;;5.70;4.00;;;;;;;;;;5093961;28;20553;-54
2021/01/29 04:24:33;;;;;;;4.87;3.77;;;;;;;;;;5093867;28;20392;-55
2021/01/29 04:27:05;;;;;;;5.30;4.27;;;;;;;;;;5093696;28;20390;-55
2021/01/29 04:29:34;;;;;;;5.00;3.83;;;;;;;;;;5093766;28;20418;-54
2021/01/29 04:32:02;;;;;;;4.00;3.30;;;;;;;;;;5093877;28;20420;-54
2021/01/29 04:34:30;;;;;;;3.47;2.80;;;;;;;;;;5093582;28;20488;-54
2021/01/29 04:36:58;;;;;;;3.00;2.70;;;;;;;;;;5093595;28;20408;-54
2021/01/29 04:39:27;;;;;;;3.40;2.80;;;;;;;;;;5093586;28;20426;-55
2021/01/29 04:42:08;;;;;;;4.90;2.70;;;;;;;;;;5093838;28;21105;-55
2021/01/29 04:44:41;;;;;;;3.87;2.53;;;;;;;;;;5075984;28;20435;-54
2021/01/29 04:47:23;;;;;;;3.33;2.40;;;;;;;;;;5073102;28;20480;-55
2021/01/29 04:50:02;;;;;;;3.03;2.83;;;;;;;;;;5073169;28;20418;-55
2021/01/29 04:52:43;;;;;;;3.00;2.70;;;;;;;;;;5073133;28;20746;-55
2021/01/29 04:55:24;;;;;;;2.47;2.27;;;;;;;;;;5073026;28;20391;-55
2021/01/29 04:58:09;;;;;;;5.17;2.37;;;;;;;;;;5073219;28;20402;-54
2021/01/29 05:00:41;;;;;;;3.03;2.57;;;;;;;;;;5072878;28;20455;-55
2021/01/29 05:03:26;;;;;;;3.97;2.70;;;;;;;;;;5072997;28;20411;-55
2021/01/29 05:05:52;;;;;;;3.97;2.53;;;;;;;;;;5072306;28;20832;-55
2021/01/29 05:08:36;;;;;;;3.30;2.83;;;;;;;;;;5071962;28;20494;-55
2021/01/29 05:11:20;;;;;;;2.70;2.47;;;;;;;;;;5072692;28;20409;-55
2021/01/29 05:14:15;;;;;;;3.10;2.90;;;;;;;;;;5073354;28;20787;-55
2021/01/29 05:16:56;;;;;;;6.00;2.90;;;;;;;;;;5059323;28;20495;-55
2021/01/29 05:19:35;;;;;;;2.87;2.63;;;;;;;;;;5072604;28;20915;-55
2021/01/29 05:22:01;;;;;;;2.90;2.70;;;;;;;;;;5072478;28;20500;-55
2021/01/29 05:24:36;;;;;;;2.57;2.40;;;;;;;;;;5072475;28;20463;-55
2021/01/29 05:27:30;;;;;;;5.20;3.00;;;;;;;;;;5072531;28;20820;-55
2021/01/29 05:29:59;;;;;;;4.30;3.07;;;;;;;;;;5072454;28;20422;-55
2021/01/29 05:32:28;;;;;;;3.40;3.10;;;;;;;;;;5072343;28;20451;-55
2021/01/29 05:35:13;;;;;;;3.30;2.90;;;;;;;;;;5072316;28;20404;-55
2021/01/29 05:37:39;;;;;;;3.87;3.20;;;;;;;;;;5072086;28;20605;-55
2021/01/29 05:40:20;;;;;;;4.40;3.40;;;;;;;;;;5072129;28;20451;-55
2021/01/29 05:43:04;;;;;;;3.03;2.77;;;;;;;;;;5072055;28;20435;-55
2021/01/29 05:45:45;;;;;;;6.57;3.90;;;;;;;;;;5071521;28;20476;-55
2021/01/29 05:48:16;;;;;;;4.60;4.20;;;;;;;;;;5071871;28;20425;-55
2021/01/29 05:51:01;;;;;;;4.27;3.87;;;;;;;;;;5072353;28;20794;-55
2021/01/29 05:53:49;;;;;;;4.87;3.60;;;;;;;;;;5071944;28;20413;-55
2021/01/29 05:56:27;;;;;;;3.13;2.90;;;;;;;;;;5071958;28;20397;-55
2021/01/29 05:59:13;;;;;;;5.27;3.30;;;;;;;;;;5071801;28;20425;-55
2021/01/29 06:01:39;;;;;;;6.70;3.67;;;;;;;;;;5071865;28;20451;-55
2021/01/29 06:04:14;;;;;;;3.53;3.23;;;;;;;;;;5071759;28;20425;-55
2021/01/29 06:06:43;;;;;;;4.27;3.87;;;;;;;;;;5071794;28;20394;-55
2021/01/29 06:09:28;;;;;;;4.73;4.27;;;;;;;;;;5071425;28;20931;-55
2021/01/29 06:11:54;;;;;;;6.37;3.93;;;;;;;;;;5071636;28;20426;-55
2021/01/29 06:14:38;;;;;;;4.50;3.20;;;;;;;;;;5070924;28;20461;-55
2021/01/29 06:17:23;;;;;;;4.67;4.13;;;;;;;;;;5072769;28;20434;-55
2021/01/29 06:19:58;;;;;;;5.40;4.07;;;;;;;;;;5071189;28;20932;-55
2021/01/29 06:22:43;;;;;;;5.90;3.80;;;;;;;;;;5071508;28;20454;-55
2021/01/29 06:25:44;;;;;;;5.37;3.73;;;;;;;;;;5075480;28;20422;-55
2021/01/29 06:28:27;;;;;;;4.33;3.93;;;;;;;;;;5009219;28;20771;-55
2021/01/29 06:31:12;;;;;;;5.40;3.90;;;;;;;;;;5084415;28;20890;-55
2021/01/29 06:33:40;;;;;;;5.87;4.53;;;;;;;;;;5091514;28;20484;-55
2021/01/29 06:36:09;;;;;;;7.80;6.13;;;;;;;;;;5091195;28;20762;-55
2021/01/29 06:38:55;;;;;;;9.93;5.63;;;;;;;;;;5091280;28;20394;-55
2021/01/29 06:41:24;;;;;;;7.90;6.23;;;;;;;;;;5090762;28;20898;-55
2021/01/29 06:44:09;;;;;;;7.67;5.50;;;;;;;;;;5084649;28;20494;-55
2021/01/29 06:46:53;;;;;;;5.60;4.40;;;;;;;;;;5070655;28;20936;-55
2021/01/29 06:49:19;;;;;;;8.70;5.63;;;;;;;;;;5070881;28;20906;-55
2021/01/29 06:51:48;;;;;;;10.17;6.67;;;;;;;;;;5070693;28;20403;-55
2021/01/29 06:54:20;;;;;;;13.07;6.83;;;;;;;;;;5070919;28;20461;-55
2021/01/29 06:57:05;;;;;;;13.23;7.87;;;;;;;;;;5070571;28;20494;-55
2021/01/29 06:59:31;;;;;;;11.90;8.50;;;;;;;;;;5070831;28;20422;-55
2021/01/29 07:02:03;;;;;;;16.10;8.33;;;;;;;;;;5071039;28;20455;-55
2021/01/29 07:04:38;;;;;;;20.00;9.17;;;;;;;;;;5070816;28;20409;-55
2021/01/29 07:07:10;;;;;;;13.50;8.97;;;;;;;;;;5070582;28;20824;-55
2021/01/29 07:09:36;;;;;;;84.07;12.97;;;;;;;;;;5070827;28;20506;-55
2021/01/29 07:12:02;;;;;;;21.00;9.27;;;;;;;;;;5070659;28;20939;-55
2021/01/29 07:14:31;;;;;;;11.43;8.20;;;;;;;;;;5070643;28;20458;-55
2021/01/29 07:17:03;;;;;;;12.47;8.20;;;;;;;;;;5070765;28;20828;-55
2021/01/29 07:19:51;;;;;;;12.10;9.10;;;;;;;;;;5070582;28;20429;-55
2021/01/29 07:22:23;;;;;;;9.07;6.90;;;;;;;;;;5070588;28;21061;-55
2021/01/29 07:24:56;;;;;;;10.80;7.57;;;;;;;;;;5070666;28;20495;-55
2021/01/29 07:27:33;;;;;;;10.57;6.93;;;;;;;;;;5071064;28;20391;-53
2021/01/29 07:30:11;;;;;;;10.20;8.13;;;;;;;;;;5071767;28;20437;-52
2021/01/29 07:32:46;;;;;;;12.33;8.50;;;;;;;;;;5074393;28;20452;-52
2021/01/29 07:35:18;;;;;;;9.93;7.10;;;;;;;;;;5074216;28;20481;-57
2021/01/29 07:37:53;;;;;;;12.03;7.83;;;;;;;;;;5074022;28;20406;-53
2021/01/29 07:40:38;;;;;;;8.87;7.43;;;;;;;;;;5073684;28;20454;-53
2021/01/29 07:43:07;;;;;;;9.83;6.93;;;;;;;;;;5074032;28;20404;-53
2021/01/29 07:45:53;;;;;;;8.00;6.47;;;;;;;;;;5072424;28;20422;-53
2021/01/29 07:48:38;;;;;;;11.83;7.43;;;;;;;;;;5059523;28;20872;-53
2021/01/29 07:51:09;;;;;;;15.73;7.60;;;;;;;;;;5073821;28;20551;-52
2021/01/29 07:53:53;;;;;;;9.10;7.67;;;;;;;;;;5073687;28;20879;-55
2021/01/29 07:56:19;;;;;;;11.03;7.73;;;;;;;;;;5073520;28;20417;-52
2021/01/29 07:58:53;;;;;;;10.80;7.00;;;;;;;;;;5073537;28;20908;-52
2021/01/29 08:01:58;;;;;;;16.93;7.27;;;;;;;;;;5073966;28;20490;-54
2021/01/29 08:04:42;;;;;;;15.93;9.03;;;;;;;;;;4992153;28;20404;-52
2021/01/29 08:07:15;;;;;;;15.80;8.70;;;;;;;;;;4992054;28;20415;-52
2021/01/29 08:09:45;;;;;;;9.20;7.13;;;;;;;;;;5044820;28;20434;-55
2021/01/29 08:12:12;;;;;;;12.67;8.33;;;;;;;;;;5073977;28;20391;-53
2021/01/29 08:14:46;;;;;;;10.90;7.53;;;;;;;;;;5083570;28;20502;-53
2021/01/29 08:17:31;;;;;;;10.20;6.87;;;;;;;;;;5093690;28;20483;-53
2021/01/29 08:19:57;;;;;;;9.77;7.00;;;;;;;;;;5093853;28;20421;-54
2021/01/29 08:22:38;;;;;;;13.03;8.33;;;;;;;;;;5094208;28;20484;-55
2021/01/29 08:25:04;;;;;;;10.30;6.93;;;;;;;;;;5094089;28;20721;-52
2021/01/29 08:27:39;;;;;;;14.07;7.03;;;;;;;;;;5092298;28;20402;-52
2021/01/29 08:30:11;;;;;;;10.80;7.60;;;;;;;;;;5093801;28;21047;-55
2021/01/29 08:32:49;;;;;;;10.50;8.00;;;;;;;;;;5093688;28;20406;-56
2021/01/29 08:35:34;;;;;;;11.47;6.70;;;;;;;;;;5093660;28;20459;-55
2021/01/29 08:38:21;;;;;;;11.03;8.00;;;;;;;;;;5092536;28;20410;-56
2021/01/29 08:41:06;;;;;;;9.40;7.37;;;;;;;;;;5051999;28;20478;-52
2021/01/29 08:43:35;;;;;;;8.17;7.37;;;;;;;;;;5073365;28;20401;-52
2021/01/29 08:46:06;;;;;;;12.80;7.83;;;;;;;;;;5080351;28;20487;-55
2021/01/29 08:48:44;;;;;;;11.73;8.10;;;;;;;;;;5093128;28;20429;-52
2021/01/29 08:51:18;;;;;;;11.30;9.27;;;;;;;;;;5093823;28;20489;-53
2021/01/29 08:53:47;;;;;;;14.77;9.80;;;;;;;;;;5093663;28;20410;-52
2021/01/29 08:56:16;;;;;;;10.70;8.67;;;;;;;;;;5093525;28;20493;-52
2021/01/29 08:58:59;;;;;;;18.20;10.03;;;;;;;;;;5092038;28;20487;-56
2021/01/29 09:01:28;;;;;;;13.67;9.10;;;;;;;;;;5093643;28;20507;-52
2021/01/29 09:04:03;;;;;;;20.80;9.40;;;;;;;;;;5093373;28;20398;-55
2021/01/29 09:06:37;;;;;;;16.30;8.40;;;;;;;;;;5093298;28;20402;-52
2021/01/29 09:09:06;;;;;;;19.20;9.20;;;;;;;;;;5086294;28;20446;-52
2021/01/29 09:11:32;;;;;;;14.53;8.67;;;;;;;;;;5082697;28;20437;-52
2021/01/29 09:14:00;;;;;;;26.07;10.60;;;;;;;;;;5092887;28;20406;-52
2021/01/29 09:16:28;;;;;;;21.70;10.87;;;;;;;;;;5092816;28;20886;-55
2021/01/29 09:19:14;;;;;;;19.67;10.20;;;;;;;;;;5093055;28;20760;-52
2021/01/29 09:22:01;;;;;;;21.23;9.47;;;;;;;;;;5092900;28;20545;-52
2021/01/29 09:24:35;;;;;;;17.80;9.50;;;;;;;;;;5092787;28;20434;-56
2021/01/29 09:27:01;;;;;;;24.77;10.77;;;;;;;;;;5092531;28;20397;-56
2021/01/29 09:29:31;;;;;;;23.43;10.83;;;;;;;;;;5092534;28;20422;-56
2021/01/29 09:32:03;;;;;;;18.90;8.40;;;;;;;;;;5092701;28;20414;-53
2021/01/29 09:34:32;;;;;;;14.80;7.33;;;;;;;;;;5091811;28;21000;-54
2021/01/29 09:37:02;;;;;;;14.47;7.37;;;;;;;;;;5091717;28;20438;-53
2021/01/29 09:39:36;;;;;;;15.30;7.10;;;;;;;;;;5085925;28;20454;-53
2021/01/29 09:42:04;;;;;;;14.30;7.47;;;;;;;;;;5088316;28;20459;-53
2021/01/29 09:44:35;;;;;;;16.57;6.43;;;;;;;;;;5111479;28;20923;-52
2021/01/29 09:47:03;;;;;;;12.53;6.70;;;;;;;;;;5111679;28;20421;-55
2021/01/29 09:49:30;;;;;;;21.40;8.17;;;;;;;;;;5094072;28;20932;-58
2021/01/29 09:51:59;;;;;;;16.47;8.03;;;;;;;;;;5083970;28;20464;-51
2021/01/29 09:54:30;;;;;;;13.90;7.70;;;;;;;;;;5091219;28;21179;-51
2021/01/29 09:57:06;;;;;;;21.00;7.10;;;;;;;;;;5087782;28;20418;-55
2021/01/29 09:59:32;;;;;;;18.10;7.10;;;;;;;;;;5083851;28;20456;-54
2021/01/29 10:02:03;;;;;;;10.13;6.20;;;;;;;;;;5079848;28;20511;-53
2021/01/29 10:04:34;;;;;;;19.20;7.27;;;;;;;;;;5087609;28;20416;-53
2021/01/29 10:07:03;;;;;;;14.33;7.20;;;;;;;;;;5080702;28;20830;-53
2021/01/29 10:09:41;;;;;;;29.73;8.40;;;;;;;;;;5083900;28;20884;-54
2021/01/29 10:12:15;;;;;;;18.20;7.90;;;;;;;;;;5086041;28;20903;-52
2021/01/29 10:14:54;;;;;;;24.10;8.97;;;;;;;;;;5080311;28;20410;-53
2021/01/29 10:17:28;;;;;;;20.07;8.40;;;;;;;;;;5080636;28;20404;-53
2021/01/29 10:19:57;;;;;;;20.30;10.47;;;;;;;;;;5079909;28;20466;-52
2021/01/29 10:22:23;;;;;;;26.20;10.83;;;;;;;;;;5079230;28;20396;-52
2021/01/29 10:25:00;;;;;;;22.03;10.70;;;;;;;;;;5081815;28;20415;-53
2021/01/29 10:27:34;;;;;;;18.43;11.30;;;;;;;;;;5081861;28;20402;-53
2021/01/29 10:30:02;;;;;;;26.07;10.60;;;;;;;;;;5081241;28;20438;-54
2021/01/29 10:32:33;;;;;;;27.83;11.90;;;;;;;;;;5079875;28;20485;-54
2021/01/29 10:35:04;;;;;;;26.70;11.80;;;;;;;;;;5080407;28;20806;-54
2021/01/29 10:37:36;;;;;;;32.00;14.13;;;;;;;;;;5079530;28;20514;-54
2021/01/29 10:40:21;;;;;;;34.63;13.77;;;;;;;;;;5088410;28;20433;-54
2021/01/29 10:42:54;;;;;;;35.77;13.43;;;;;;;;;;5071282;28;20457;-54
2021/01/29 10:45:30;;;;;;;39.27;14.60;;;;;;;;;;5070716;28;20400;-54
2021/01/29 10:48:08;;;;;;;34.10;14.50;;;;;;;;;;5080145;28;20426;-54
2021/01/29 10:50:41;;;;;;;43.90;15.20;;;;;;;;;;5080156;28;20516;-54
2021/01/29 10:53:21;;;;;;;43.80;15.67;;;;;;;;;;5079983;28;20408;-53
2021/01/29 10:55:59;;;;;;;46.00;14.70;;;;;;;;;;5079190;28;20407;-52
2021/01/29 10:58:40;;;;;;;49.17;15.43;;;;;;;;;;5079589;28;20453;-54
2021/01/29 11:01:28;;;;;;;41.87;14.33;;;;;;;;;;5073206;28;20441;-52
2021/01/29 11:04:04;;;;;;;34.97;11.63;;;;;;;;;;5058077;28;20917;-52
2021/01/29 11:06:36;;;;;;;41.47;11.50;;;;;;;;;;5070193;28;20820;-52
2021/01/29 11:09:02;;;;;;;32.53;12.73;;;;;;;;;;5070680;28;20411;-53
2021/01/29 11:11:32;;;;;;;45.90;11.60;;;;;;;;;;5071283;28;20431;-52
2021/01/29 11:14:05;;;;;;;42.43;10.57;;;;;;;;;;5070605;28;20888;-52
2021/01/29 11:16:37;;;;;;;43.30;11.80;;;;;;;;;;5070418;28;20972;-53
2021/01/29 11:19:04;;;;;;;24.70;10.63;;;;;;;;;;5070443;28;20815;-54
2021/01/29 11:21:46;;;;;;;30.67;10.07;;;;;;;;;;5071068;28;20889;-51
2021/01/29 11:24:25;;;;;;;34.97;9.80;;;;;;;;;;5071058;28;20399;-54
2021/01/29 11:27:16;;;;;;;31.37;10.80;;;;;;;;;;5070436;28;20632;-54
2021/01/29 11:30:02;;;;;;;33.13;9.50;;;;;;;;;;5070411;28;20447;-54
2021/01/29 11:32:30;;;;;;;31.50;8.83;;;;;;;;;;5070884;28;20504;-53
2021/01/29 11:35:02;;;;;;;23.63;9.23;;;;;;;;;;5069883;28;20976;-53
2021/01/29 11:37:35;;;;;;;26.23;8.50;;;;;;;;;;5072884;28;20959;-53
2021/01/29 11:40:13;;;;;;;35.20;8.67;;;;;;;;;;5070127;28;20415;-52
2021/01/29 11:42:45;;;;;;;22.10;8.70;;;;;;;;;;5070084;28;20492;-52
2021/01/29 11:45:17;;;;;;;27.23;8.97;;;;;;;;;;5070323;28;20396;-52
2021/01/29 11:47:49;;;;;;;24.77;10.90;;;;;;;;;;5079725;28;20944;-53
2021/01/29 11:50:18;;;;;;;22.77;9.53;;;;;;;;;;5089945;28;20428;-53
2021/01/29 11:52:46;;;;;;;21.63;8.80;;;;;;;;;;5089226;28;20431;-52
2021/01/29 11:55:23;;;;;;;41.40;9.33;;;;;;;;;;5080770;28;20890;-54
2021/01/29 11:57:52;;;;;;;34.00;9.93;;;;;;;;;;5069856;28;20949;-54
2021/01/29 12:00:21;;;;;;;29.53;9.53;;;;;;;;;;5069605;28;20509;-54
2021/01/29 12:03:00;;;;;;;23.13;8.57;;;;;;;;;;5070113;28;20860;-54
2021/01/29 12:05:31;;;;;;;30.87;8.90;;;;;;;;;;5069927;28;20399;-53
2021/01/29 12:08:03;;;;;;;23.73;7.90;;;;;;;;;;5070051;28;20431;-52
2021/01/29 12:10:47;;;;;;;20.37;7.50;;;;;;;;;;5068891;28;20466;-53
2021/01/29 12:13:18;;;;;;;19.60;6.20;;;;;;;;;;5069504;28;20488;-52
2021/01/29 12:15:47;;;;;;;14.20;5.47;;;;;;;;;;5070515;28;20404;-54
2021/01/29 12:18:14;;;;;;;24.67;5.57;;;;;;;;;;5073707;28;20396;-52
2021/01/29 12:20:42;;;;;;;26.50;7.10;;;;;;;;;;5073712;28;20468;-54
2021/01/29 12:23:13;;;;;;;24.60;6.50;;;;;;;;;;5073368;28;20400;-52
2021/01/29 12:25:55;;;;;;;18.77;5.90;;;;;;;;;;5072733;28;20490;-52
2021/01/29 12:28:24;;;;;;;14.30;6.43;;;;;;;;;;5072752;28;20762;-53
2021/01/29 12:31:06;;;;;;;18.60;7.33;;;;;;;;;;5072729;28;20404;-51
2021/01/29 12:33:33;;;;;;;20.80;7.10;;;;;;;;;;5073747;28;20409;-51
2021/01/29 12:36:01;;;;;;;23.53;7.33;;;;;;;;;;5072423;28;20492;-56
2021/01/29 12:38:45;;;;;;;16.67;6.60;;;;;;;;;;5073649;28;20440;-57
2021/01/29 12:41:38;;;;;;;20.00;7.50;;;;;;;;;;5080876;28;20454;-54
2021/01/29 12:44:07;;;;;;;22.00;8.37;;;;;;;;;;5077680;28;20428;-52
2021/01/29 12:46:36;;;;;;;24.77;8.43;;;;;;;;;;5108840;28;20403;-55
2021/01/29 12:49:05;;;;;;;22.10;7.03;;;;;;;;;;5109963;28;20430;-55
2021/01/29 12:51:40;;;;;;;18.30;7.43;;;;;;;;;;5109567;28;20415;-56
2021/01/29 12:54:29;;;;;;;16.30;7.50;;;;;;;;;;5109662;28;20411;-55
2021/01/29 12:57:01;;;;;;;22.13;9.00;;;;;;;;;;5098736;28;20418;-53
2021/01/29 12:59:35;;;;;;;16.67;7.77;;;;;;;;;;5098151;28;20424;-54
2021/01/29 13:02:07;;;;;;;21.83;8.17;;;;;;;;;;5095977;28;20963;-54
2021/01/29 13:04:36;;;;;;;24.17;9.23;;;;;;;;;;5097219;28;20491;-56
2021/01/29 13:07:05;;;;;;;21.90;9.07;;;;;;;;;;5092438;28;20411;-55
2021/01/29 13:09:48;;;;;;;24.00;9.20;;;;;;;;;;5107449;28;21251;-57
2021/01/29 13:12:21;;;;;;;13.77;7.20;;;;;;;;;;5096483;28;20974;-54
2021/01/29 13:15:03;;;;;;;21.47;9.00;;;;;;;;;;5085023;28;20416;-55
2021/01/29 13:17:33;;;;;;;26.37;8.90;;;;;;;;;;5089048;28;20438;-52
2021/01/29 13:20:02;;;;;;;25.07;8.33;;;;;;;;;;5089333;28;20419;-53
2021/01/29 13:22:31;;;;;;;21.40;7.43;;;;;;;;;;5109320;28;20463;-53
2021/01/29 13:25:04;;;;;;;26.20;8.57;;;;;;;;;;5109524;28;20838;-54
2021/01/29 13:27:32;;;;;;;15.17;7.50;;;;;;;;;;5105013;28;20396;-54
2021/01/29 13:30:17;;;;;;;20.77;7.23;;;;;;;;;;5092326;28;20423;-51
2021/01/29 13:32:43;;;;;;;14.80;6.03;;;;;;;;;;5092763;28;20939;-51
2021/01/29 13:35:10;;;;;;;13.80;6.33;;;;;;;;;;5092377;28;20767;-52
2021/01/29 13:37:37;;;;;;;15.07;6.07;;;;;;;;;;5092859;28;20425;-54
2021/01/29 13:40:12;;;;;;;19.13;6.23;;;;;;;;;;5092225;28;20470;-51
2021/01/29 13:42:41;;;;;;;18.67;7.60;;;;;;;;;;5081587;28;20477;-52
2021/01/29 13:45:07;;;;;;;15.63;5.70;;;;;;;;;;5072101;28;20402;-52
2021/01/29 13:47:33;;;;;;;21.47;6.50;;;;;;;;;;5078951;28;20489;-51
2021/01/29 13:50:18;;;;;;;15.50;5.93;;;;;;;;;;5084760;28;20419;-50
2021/01/29 13:52:49;;;;;;;14.30;5.73;;;;;;;;;;5092244;28;20388;-51
2021/01/29 13:55:27;;;;;;;19.47;6.67;;;;;;;;;;5091918;28;20392;-56
2021/01/29 13:57:55;;;;;;;11.27;5.63;;;;;;;;;;5090522;28;20403;-51
2021/01/29 14:00:26;;;;;;;16.90;5.97;;;;;;;;;;5091911;28;20553;-55
2021/01/29 14:02:59;;;;;;;16.93;6.70;;;;;;;;;;5091900;28;20399;-51
2021/01/29 14:05:26;;;;;;;26.80;6.60;;;;;;;;;;5091934;28;20423;-52
2021/01/29 14:07:54;;;;;;;18.30;6.80;;;;;;;;;;5091780;28;20482;-51
2021/01/29 14:10:28;;;;;;;22.40;6.27;;;;;;;;;;5091831;28;20437;-51
2021/01/29 14:12:54;;;;;;;21.30;6.03;;;;;;;;;;5089713;28;20429;-51
2021/01/29 14:15:34;;;;;;;17.17;6.17;;;;;;;;;;5091757;28;20493;-51
2021/01/29 14:18:19;;;;;;;12.53;5.00;;;;;;;;;;5091666;28;20417;-51
2021/01/29 14:20:50;;;;;;;9.10;4.63;;;;;;;;;;5091796;28;20460;-51
2021/01/29 14:23:16;;;;;;;7.57;5.10;;;;;;;;;;5091762;28;20416;-54
2021/01/29 14:26:01;;;;;;;10.30;4.33;;;;;;;;;;5091529;28;20522;-51
2021/01/29 14:28:45;;;;;;;10.23;3.77;;;;;;;;;;5090194;28;20425;-52
2021/01/29 14:31:11;;;;;;;7.40;3.30;;;;;;;;;;5091459;28;20414;-52
2021/01/29 14:33:45;;;;;;;2.90;2.60;;;;;;;;;;5091509;28;20407;-52
2021/01/29 14:36:15;;;;;;;8.90;3.23;;;;;;;;;;5091095;28;20410;-52
2021/01/29 14:39:00;;;;;;;13.37;4.10;;;;;;;;;;5091081;28;20457;-52
2021/01/29 14:41:38;;;;;;;7.10;3.93;;;;;;;;;;5087281;28;20462;-52
2021/01/29 14:44:36;;;;;;;9.83;4.17;;;;;;;;;;5070932;28;20430;-53
2021/01/29 14:47:02;;;;;;;13.17;3.97;;;;;;;;;;5036686;28;20853;-52
2021/01/29 14:49:54;;;;;;;12.97;5.70;;;;;;;;;;5070914;28;20519;-53
2021/01/29 14:52:22;;;;;;;8.80;3.47;;;;;;;;;;5070860;28;20400;-53
2021/01/29 14:54:51;;;;;;;8.57;3.80;;;;;;;;;;5070819;28;20459;-54
2021/01/29 14:57:21;;;;;;;16.10;5.10;;;;;;;;;;5070218;28;20409;-52
2021/01/29 14:59:50;;;;;;;15.87;3.90;;;;;;;;;;5070714;28;20431;-53
2021/01/29 15:02:25;;;;;;;12.60;4.10;;;;;;;;;;5070827;28;20806;-52
2021/01/29 15:04:55;;;;;;;9.40;3.83;;;;;;;;;;5070762;28;20430;-53